SiktMolnbas
>≥ 10km≥ 10km ≥ 2000ft≥ 2000ft
< 10km< 10km < 2000ft< 2000ft
< 8km< 8km < 1500ft< 1500ft
< 5km< 5km < 1000ft< 1000ft
< 3km< 3km < 500ft< 500ft

Nytt 18 jan 2017:

Nytt 17 jan 2017:

ESNQ (14:20 UTC)

Kiruna flygplats

METAR

ESNQ 181420Z 34005KT 9999 SCT047 01/01 Q1003=

TAF

ESNQ 181430Z 1815/1823 34005KT CAVOK=

ESNG (14:20 UTC)

Gällivare (Kavaheden), Lapland Airport

METAR

DZ

ESNG 181420Z 34003KT 300V010 9999 DZ OVC014 03/01 Q1003=

TAF

SN

ESNG 181430Z 1815/1821 33005KT 4000 -SNRA BKN008 BECMG 1815/1816 CAVOK=

ESPA (14:20 UTC)

Luleå Airport (Kallax)

METAR

ESPA 181420Z 31008KT 9999 BKN013 BKN065 03/01 Q1004=

TAF

ESPA 181430Z 1815/1823 32010KT 9999 BKN010 BECMG 1815/1817 BKN017 RMK MIL=

ESNL (13:50 UTC)

Lycksele flygplats

METAR

ESNL 181350Z AUTO 31007KT 9999 FEW054/// 06/00 Q1005=

TAF

Ingen TAF hittades.

ESNU (14:20 UTC)

Umeå City Airport

METAR

ESNU 181420Z 31008KT CAVOK 08/02 Q1005=

TAF

ESNU 181430Z 1815/1824 31010KT CAVOK=

ESNO (14:20 UTC)

Örnsköldsvik flygplats

METAR

ESNO 181420Z 31012KT 9999 SCT040 08/02 Q1006=

TAF

ESNO 181430Z 1815/1822 31012KT CAVOK=

ESNK (14:20 UTC)

Kramfors-Sollefteå flygplats

METAR

ESNK 181420Z 33008KT 9999 BKN042 10/04 Q1007=

TAF

ESNK 181430Z 1815/1820 31012KT CAVOK=

ESNN (14:20 UTC)

Sundsvall-Härnösands flygplats (Midlanda)

METAR

ESNN 181420Z 29007KT 9999 FEW042 10/03 Q1008 RWY 16 CLEAR AND DRY 51-100 PCT BA GOOD=

TAF

ESNN 181430Z 1815/1824 31012KT CAVOK=

ESNZ (14:20 UTC)

Åre Östersund Airport (Frösön)

METAR

ESNZ 181420Z 30021KT 9999 BKN027 07/02 Q1010=

TAF

ESNZ 181430Z 1815/1822 31020G30KT 9999 SCT025 BECMG 1816/1818 31010KT=

ESNS (14:20 UTC)

Skellefteå flygplats

METAR

ESNS 181420Z VRB03KT 9999 BKN025 06/02 Q1005=

TAF

ESNS 181430Z 1815/1822 31008KT CAVOK=

ESGT (14:20 UTC)

Trollhättan-Vänersborgs flygplats (Malöga flygplats)

METAR

ESGT 181420Z 03005KT CAVOK 10/05 Q1016=

TAF

ESGT 181430Z 1815/1820 04006KT CAVOK=

ESGG (14:20 UTC)

Göteborg-Landvetter flygplats

METAR

ESGG 181420Z 05008KT CAVOK 09/04 Q1015=

TAF

ESGG 181130Z 1812/1912 05010KT 9999 SCT020 BECMG 1908/1910 12008KT=

ESMT (14:20 UTC)

Halmstads flygplats

METAR

ESMT 181420Z 25004KT 9999 SCT006 12/11 Q1014=

TAF

RABR

ESMT 181410Z 1815/1821 25008KT 9999 BKN015 TEMPO 1815/1818 4000 -RADZ BR BKN008 TEMPO 1818/1821 2000 BR BKN005=

ESTA (14:20 UTC)

Ängelholm-Helsingborg flygplats

METAR

BR

ESTA 181420Z 28005KT 8000 BR SCT005 BKN010 12/11 Q1014=

TAF

RABR

ESTA 181410Z 1815/1822 26006KT 9999 BKN015 TEMPO 1815/1818 4000 -RADZ BR BKN007 TEMPO 1818/1822 2000 BR BKN005=

ESTL (14:20 UTC)

Ljungbyheds flygplats

METAR

ESTL 181420Z AUTO 30004KT 9999NDV FEW008/// OVC018/// 13/11 Q1014=

TAF

RABR

ESTL 181056Z 1812/1815 24008KT 9999 BKN015 TEMPO 1812/1815 4000 RADZ BR BKN004=

ESMS (14:20 UTC)

Malmö Airport

METAR

DZ

ESMS 181420Z 25005KT 9999 DZ BKN021 13/11 Q1014=

TAF

RABR

ESMS 181055Z 1812/1912 24010KT 9999 BKN025 TEMPO 1812/1817 BKN010 BECMG 1816/1819 VRB03KT TEMPO 1817/1901 3000 RADZ BKN006 TEMPO 1901/1906 2000 BR BKN004 BECMG 1902/1905 08010KT TEMPO 1906/1912 4000 BR BKN004=

ESMK (14:20 UTC)

Kristianstad Airport

METAR

ESMK 181420Z 33005KT 9999 BKN020 14/14 Q1014=

TAF

RABR

ESMK 181410Z 1815/1819 25008KT 9999 BKN020 TEMPO 1815/1817 BKN012 TEMPO 1817/1819 4000 -RADZ BR BKN010=

ESDF (14:20 UTC)

Ronneby flygplats

METAR

ESDF 181420Z VRB02KT 9999 FEW022 BKN030 14/12 Q1014=

TAF

ESDF 181430Z 1815/1822 28004KT 9999 BKN025 PROB40 1816/1822 BKN009=

ESMQ (14:20 UTC)

Kalmar Airport

METAR

BR

ESMQ 181420Z 04006KT 3800 BR FEW003 BKN005 OVC007 10/10 Q1014=

TAF

ESMQ 181430Z 1815/1822 03007KT 9999 SCT006 BKN015 TEMPO 1815/1816 BKN006=

ESMX (14:20 UTC)

Växjö, Smaland Airport

METAR

ESMX 181420Z 35006KT 9999 SCT009 BKN012 11/10 Q1014=

TAF

ESMX 181430Z 1815/1824 01006KT 9999 FEW008 BKN035 PROB40 1815/1816 BKN008=

ESGJ (14:20 UTC)

Jönköping Airport

METAR

ESGJ 181420Z 04006KT CAVOK 09/02 Q1015=

TAF

ESGJ 181430Z 1815/1824 02006KT CAVOK=

ESSA (14:20 UTC)

Stockholm-Arlanda flygplats

METAR

ESSA 181420Z 27010KT CAVOK 10/04 Q1012 NOSIG=

TAF

ESSA 181130Z 1812/1912 30010KT CAVOK=

ESSB (14:20 UTC)

Stockholm-Bromma flygplats

METAR

ESSB 181420Z 26011KT CAVOK 10/04 Q1012=

TAF

ESSB 181430Z 1815/1820 28008KT CAVOK=

ESKN (14:20 UTC)

Stockholm-Skavsta flygplats

METAR

ESKN 181420Z 28009KT CAVOK 10/04 Q1014=

TAF

ESKN 181130Z 1812/1912 30010KT CAVOK=

ESSP (13:50 UTC)

Norrköping flygplats

METAR

ESSP 181350Z 28009KT CAVOK 11/05 Q1014=

TAF

ESSP 181430Z 1815/1821 30007KT CAVOK=

ESSL (14:20 UTC)

Linköping - SAAB Flygplats

METAR

ESSL 181420Z 28007KT 230V310 CAVOK 10/05 Q1015=

TAF

ESSL 181430Z 1815/1822 29006KT CAVOK=

ESSV (14:20 UTC)

Visby flygplats

METAR

ESSV 181420Z 33008KT CAVOK 09/06 Q1014=

TAF

ESSV 181430Z 1815/1822 33008KT CAVOK=

ESOW (14:20 UTC)

Stockholm-Västerås flygplats

METAR

ESOW 181420Z 29007KT 260V320 CAVOK 11/02 Q1014=

TAF

ESOW 181430Z 1815/1817 30007KT CAVOK=

ESOE (14:20 UTC)

Örebro flygplats

METAR

ESOE 181420Z 25007KT CAVOK 11/05 Q1014=

TAF

ESOE 181430Z 1815/1824 28007KT CAVOK=

ESOK (14:20 UTC)

Karlstad Airport

METAR

ESOK 181420Z 28004KT 250V320 CAVOK 10/04 Q1015=

TAF

ESOK 181430Z 1815/1822 30005KT CAVOK=

ESSD (14:20 UTC)

Borlänge, Dala Airport

METAR

ESSD 181420Z 28009KT CAVOK 10/03 Q1013=

TAF

ESSD 181430Z 1815/1819 30008KT CAVOK=

ESGR (14:20 UTC)

Skövde flygplats

METAR

ESGR 181420Z AUTO VRB02KT 9999 NCD 10/03 Q1015=

TAF

Ingen TAF hittades.

ESIB (14:20 UTC)

Såtenäs

METAR

ESIB 181420Z 36005KT CAVOK 09/06 Q1016=

TAF

ESIB 181130Z 1812/1815 03007KT CAVOK RMK MIL=

ESNV (14:20 UTC)

Vilhelmina flygplats

METAR

ESNV 181420Z 30008KT 9999 FEW043 06/00 Q1007=

TAF

Ingen TAF hittades.

ESST (14:20 UTC)

Torsby flygplats (Fryklanda)

METAR

ESST 181420Z 29006KT CAVOK 10/03 Q1015=

TAF

Ingen TAF hittades.

ESUT (14:20 UTC)

Hemavans flygplats

METAR

ESUT 181420Z AUTO 28007KT 9999 OVC022/// 04/02 Q1007=

TAF

Ingen TAF hittades.

ESNX (14:20 UTC)

Arvidsjaur flygplats

METAR

ESNX 181420Z 28009KT CAVOK 04/01 Q1004=

TAF

ESNX 181430Z 1815/1820 31005KT CAVOK=

ESIA (14:20 UTC)

Karlsborg

METAR

ESIA 181420Z 29005KT 260V320 CAVOK 10/04 Q1015=

TAF

Ingen TAF hittades.

ESUD (14:20 UTC)

Storuman

METAR

ESUD 181420Z AUTO 33004KT 9999 SCT035/// BKN046/// 05/02 Q1006=

TAF

Ingen TAF hittades.

ESUP (14:20 UTC)

Pajala

METAR

ESUP 181420Z 32005KT 290V010 9999 BKN008 01/M01 Q1003=

TAF

Ingen TAF hittades.

ESPE (14:20 UTC)

Vidsel

METAR

ESPE 181420Z AUTO VRB02KT 9999 OVC060/// 03/02 Q1005=

TAF

Ingen TAF hittades.

ESCM (14:20 UTC)

Uppsala

METAR

ESCM 181420Z AUTO 28008KT 9999 NCD 10/04 Q1012=

TAF

Ingen TAF hittades.

ESKM (14:20 UTC)

Mora/Siljan

METAR

ESKM 181420Z AUTO 30010KT 9999 NCD 10/02 Q1013=

TAF

Ingen TAF hittades.

EKRN (14:20 UTC)

Bornholm Airport

METAR

EKRN 181420Z AUTO 28006KT 9999NDV OVC025/// 13/11 Q1015=

TAF

RA

EKRN 181123Z 1812/1821 26008KT 9999 SCT010 BKN025 TEMPO 1818/1821 4000 RADZ=

EFIV (14:20 UTC)

Ivalo Airport

METAR

RA

EFIV 181420Z 35004KT 310V030 7000 -RA OVC007 03/03 Q1001=

TAF

Ingen TAF hittades.

EFKT (14:20 UTC)

Kittilä Airport

METAR

RA

EFKT 181420Z AUTO 31009KT 9999 -RA FEW010 OVC025 01/M00 Q1002=

TAF

RA

EFKT 181126Z 1812/1818 32007KT 9999 FEW008 BKN030 TEMPO 1812/1814 BKN006 BECMG 1814/1816 6000 -RASN OVC008=

EFRO (14:20 UTC)

Rovaniemi Airport

METAR

EFRO 181420Z AUTO 31010KT 9999 BKN005 00/00 Q1001=

TAF

SNBR

EFRO 181126Z 1812/1912 36007KT 8000 BKN006 TEMPO 1812/1815 1500 BR BKN002 TEMPO 1815/1818 BKN010 BECMG 1818/1820 4000 -SNRA BECMG 1822/1824 9999 SCT008 TEMPO 1900/1906 BKN003=

EFKE (14:20 UTC)

Kemi-Tornio Airport

METAR

EFKE 181420Z AUTO 35011KT 320V020 9999 OVC010 01/M01 Q1003=

TAF

EFKE 181126Z 1812/1821 36010KT 9999 BKN005 TEMPO 1812/1821 SCT005 BKN020=

EFKS (14:20 UTC)

Kuusamo Airport

METAR

RABR

EFKS 181420Z AUTO 29006KT 270V340 3900 -RA BR OVC006 00/M00 Q0998=

TAF

Ingen TAF hittades.

EFOU (14:20 UTC)

Oulu Airport

METAR

EFOU 181420Z AUTO 33010KT 9999 OVC006/// 02/02 Q1002=

TAF

EFOU 181126Z 1812/1912 28010KT 9999 OVC003 BECMG 1812/1814 BKN005 TEMPO 1814/1824 SCT005 BKN020 TEMPO 1900/1907 BKN010 BECMG 1907/1909 BKN020=

EFKI (14:20 UTC)

Kajaani Airport

METAR

EFKI 181420Z 30007KT 9999 BKN005 03/02 Q1000=

TAF

EFKI 181133Z 1812/1821 30007KT 9999 OVC004 BECMG 1812/1814 BKN006=

EFKK (14:20 UTC)

Kokkola-Pietarsaari/Kruunupyy Airport

METAR

EFKK 181420Z 28005KT 9999 FEW015 BKN018 BKN021 06/04 Q1003=

TAF

EFKK RRA 181141Z 1812/1821 30008KT 9999 SCT015 BKN120 TEMPO 1812/1818 BKN012=

EFVA (14:20 UTC)

Vaasa Airport

METAR

EFVA 181420Z AUTO 34008KT 9999 SCT023/// BKN057/// 08/03 Q1004=

TAF

CB

EFVA 181138Z 1812/1912 30009KT 9999 FEW020 PROB30 TEMPO 1813/1816 FEW030CB=

EFKU (14:20 UTC)

Kuopio Airport

METAR

EFKU 181420Z AUTO 30010KT 9999 SCT015 OVC028 06/03 Q1000=

TAF

EFKU 181133Z 1812/1912 31008KT 9999 BKN015 TEMPO 1816/1903 BKN012=

EFJY (14:20 UTC)

Jyväskylä Airport

METAR

EFJY 181420Z AUTO 27008KT 230V300 9999 OVC029 06/03 Q1002=

TAF

RA

EFJY 181138Z 1812/1912 29008KT 9999 BKN015 PROB40 TEMPO 1812/1821 BKN012 TEMPO 1903/1909 1500 BCFG BKN005 PROB30 1910/1912 6000 -RADZ BKN010=

EFTP (14:20 UTC)

Tampere-Pirkkala Airport

METAR

EFTP 181420Z AUTO 26011KT 9999 FEW018 SCT029 BKN075 07/04 Q1005=

TAF

BRCB

EFTP 181138Z 1812/1912 27009KT 9999 SCT020 BKN030 PROB30 TEMPO 1814/1817 FEW025CB SCT030 TEMPO 1900/1905 1000 BCFG BECMG 1905/1907 4000 BR BKN004 BECMG 1907/1909 9999 SCT007=

EFPO (14:20 UTC)

Pori Airport

METAR

RA

EFPO 181420Z AUTO 29014KT 9999 -RA FEW015/// BKN019/// BKN024/// 08/05 Q1006=

TAF

CB

EFPO 181138Z 1812/1821 29011KT 9999 BKN025 PROB30 TEMPO 1812/1817 FEW025CB SCT030=

EFTU (14:20 UTC)

Turku Airport

METAR

EFTU 181420Z AUTO 28010KT 9999 FEW023/// BKN028/// 08/04 Q1007=

TAF

EFTU 181131Z 1812/1912 29007G17KT 9999 SCT025=

EFHK (14:20 UTC)

Helsinki-Vantaa Airport

METAR

EFHK 181420Z 25011KT 9999 SCT027 BKN037 08/03 Q1005 NOSIG=

TAF

FG

EFHK 181131Z 1812/1912 29010KT 9999 BKN025 PROB40 TEMPO 1902/1909 0500 FG VV002=

EFMA (14:20 UTC)

Mariehamn Airport

METAR

EFMA 181420Z AUTO 29008KT 260V340 CAVOK 10/04 Q1010=

TAF

EFMA 181131Z 1812/1821 30012KT 9999 BKN020=

EKSB (14:00 UTC)

Sønderborg Airport

METAR

EKSB 181400Z 33003KT 9999 BKN020 14/12 Q1014=

TAF

RA

EKSB 181156Z 1812/1821 VRB05KT 9999 SCT025 TEMPO 1812/1821 4000 RADZ BKN008=

EKSP (14:20 UTC)

Vojens Airport

METAR

RA

EKSP 181420Z 28005KT 9999 -RA SCT007 BKN039 12/11 Q1014=

TAF

RABR

EKSP 181113Z 1812/1912 25008KT 9999 BKN030 BKN100 TEMPO 1812/1818 4000 -RA BKN008 BECMG 1814/1816 VRB05KT TEMPO 1818/1907 2500 -RA BR BKN004 TEMPO 1907/1912 4000 -RA BKN008 BECMG 1907/1909 12012KT=

EKEB (14:20 UTC)

Esbjerg Airport

METAR

RA

EKEB 181420Z AUTO 23003KT 9999NDV -RA BKN048/// BKN068/// 12/12 Q1014=

TAF

RA

EKEB 181050Z 1812/1821 VRB05KT 9999 BKN025 TEMPO 1812/1821 3000 RADZ BKN008=

EKYT (14:20 UTC)

Aalborg Airport

METAR

EKYT 181420Z AUTO 07007KT 9999NDV BKN011/// 12/10 Q1015=

TAF

RABR

EKYT 181126Z 1812/1912 06008KT 9999 BKN020 TEMPO 1812/1816 7000 -RADZ BKN008 TEMPO 1900/1909 4000 BR BKN005 BECMG 1909/1912 12010KT 5000 -RA BKN012=

EKKA (14:20 UTC)

Karup Airport

METAR

EKKA 181420Z AUTO 00000KT 9999NDV OVC017/// 14/11 Q1014=

TAF

RABR

EKKA 181126Z 1812/1912 VRB05KT 8000 BKN012 TEMPO 1812/1822 5000 -RADZ BKN008 BECMG 1815/1818 09005KT TEMPO 1822/1906 2500 -RA BR BKN004 BECMG 1909/1912 12010KT 5000 -RA BKN015=

EKBI (14:20 UTC)

Billund Airport

METAR

DZ

EKBI 181420Z AUTO 00000KT 9999NDV DZ OVC014/// 13/11 Q1014=

TAF

RABR

EKBI 181050Z 1812/1912 VRB05KT 9999 BKN015 TEMPO 1812/1820 3000 RADZ BKN008 BECMG 1820/1822 2000 BR BKN004 TEMPO 1822/1906 6000 NSW BKN015 BECMG 1906/1908 12010KT 9999 NSW BKN015 TEMPO 1908/1912 4000 RA BKN010=

EKVD (14:20 UTC)

Kolding Airport

METAR

RABR

EKVD 181420Z 22004KT 5000 -RA BR BKN009 BKN020 12/12 Q1014=

TAF

RA

EKVD 181156Z 1812/1816 VRB03KT 9999 BKN020 TEMPO 1812/1816 4000 RADZ BKN008=

EKOD (13:50 UTC)

Odense Airport

METAR

RA

EKOD 181350Z 30002KT 9999 -RA FEW012 BKN065 BKN080 12/11 Q1014=

TAF

RA

EKOD 181156Z 1812/1818 27010KT 9999 BKN020 TEMPO 1812/1818 RADZ BKN012=

EKCH (14:18 UTC)

Copenhagen Airport, Kastrup

METAR

EKCH 181418Z 24004KT 9999 BKN027 13/11 Q1015 TEMPO BKN010=

TAF

RABR

EKCH 181055Z 1812/1912 24010KT 9999 BKN025 TEMPO 1812/1816 BKN012 BECMG 1814/1817 VRB03KT TEMPO 1816/1901 3000 RADZ BKN006 TEMPO 1901/1906 2000 BR BKN004 BECMG 1901/1904 09010KT TEMPO 1906/1912 4000 BR BKN006=

EKRK (14:20 UTC)

Copenhagen Airport, Roskilde

METAR

RA

EKRK 181420Z AUTO 30004KT 9999NDV -RA SCT013/// BKN016/// OVC020/// 12/11 Q1015=

TAF

RABR

EKRK AAA 181244Z 1812/1821 25008KT 9999 BKN025 TEMPO 1812/1815 BKN010 TEMPO 1815/1821 2500 RADZ BR BKN008=

ENRY (13:50 UTC)

Moss flygplats, Rygge

METAR

ENRY 181350Z VRB05KT 300V020 CAVOK 11/01 Q1017 NOSIG=

TAF

ENRY 181100Z 1812/1912 01008KT CAVOK=

ENGM (13:50 UTC)

Oslo flygplats, Gardermoen

METAR

ENGM 181350Z 02004KT CAVOK 11/M01 Q1015 NOSIG=

TAF

ENGM 181100Z 1812/1912 35008KT CAVOK PROB30 1903/1907 2000 BCFG BKN002=

ENTO (13:50 UTC)

Sandefjord flygplats, Torp

METAR

ENTO 181350Z VRB02KT CAVOK 11/02 Q1016=

TAF

ENTO 181100Z 1812/1912 02008KT CAVOK=

ENCN (13:50 UTC)

Kristiansand flygplats, Kjevik

METAR

ENCN 181350Z 08011KT CAVOK 12/01 Q1016=

TAF

ENCN 181100Z 1812/1821 06010KT CAVOK=

ENZV (13:50 UTC)

Stavanger-Sola flygplats

METAR

ENZV 181350Z 05005KT 9999 FEW015 SCT040 11/10 Q1015 NOSIG=

TAF

ENZV 181100Z 1812/1912 VRB07KT 9999 SCT010 BECMG 1900/1903 12010KT CAVOK=

ENHD (13:50 UTC)

Haugesund flygplats, Karmøy

METAR

ENHD 181350Z 21004KT 9999 FEW015 SCT031 13/09 Q1015=

TAF

ENHD 181100Z 1812/1821 VRB07KT CAVOK=

ENBR (13:50 UTC)

Bergen flygplats, Flesland

METAR

ENBR 181350Z 00000KT CAVOK 13/04 Q1015 NOSIG RMK WIND 1200FT 12005KT=

TAF

ENBR 181100Z 1812/1912 VRB05KT CAVOK TEMPO 1812/1814 36010KT PROB30 1823/1906 1500 BCFG BKN002 TEMPO 1909/1912 14010KT=

ENBL (13:50 UTC)

Førde flygplats, Bringeland

METAR

ENBL 181350Z 06006KT CAVOK 09/02 Q1016=

TAF

Ingen TAF hittades.

ENOV (13:50 UTC)

Ørsta-Volda flygplats, Hovden

METAR

ENOV 181350Z VRB02KT 9999 FEW030 SCT042 09/05 Q1018 RMK WIND 2175FT VRB02KT=

TAF

Ingen TAF hittades.

ENML (13:50 UTC)

Molde flygplats, Årø

METAR

SHRA

ENML 181350Z 24010KT 9999 VCSH FEW010 SCT023 BKN034 09/07 Q1018=

TAF

SHRATCU

ENML 181100Z 1812/1821 26010KT 9999 -SHRA FEW015TCU BKN040 TEMPO 1812/1818 SHRA BKN014TCU BECMG 1815/1818 VRB06KT=

ENKB (13:50 UTC)

Kristiansund flygplats, Kvernberget

METAR

TCU

ENKB 181350Z 30005KT 270V340 9999 FEW017TCU SCT033 BKN042 09/06 Q1017 RERA RMK WIND 745FT 30009KT=

TAF

SHRATCU

ENKB 181100Z 1812/1821 28010KT 9999 FEW015TCU BKN030 TEMPO 1812/1816 -SHRA BKN014TCU=

ENRO (13:50 UTC)

Røros flygplats

METAR

ENRO 181350Z VRB07KT 9999 SCT019 05/01 Q1014=

TAF

ENRO 181100Z 1812/1818 29008KT 9999 FEW012 BKN020 PROB40 TEMPO 1812/1814 31015G25KT=

ENVA (13:50 UTC)

Trondheim flygplats, Værnes

METAR

RACB

ENVA 181350Z 29013KT 9999 -RA FEW029CB SCT038 BKN057 10/05 TEMPO 28018G28KT SHRA BKN014 SCT018CB Q1015 RMK WIND 670FT 29022KT=

TAF

SHRACB

ENVA AAB 181100Z 1814/1912 28012KT 9999 -SHRA FEW015 BKN030 TEMPO 1814/1818 28018G28KT SHRA BKN014 SCT018CB BECMG 1821/1824 VRB07KT=

ENOL (13:50 UTC)

Ørland flygplats

METAR

SHRATCU

ENOL 181350Z 32015KT 9999 VCSH FEW015TCU SCT030 BKN045 10/04 Q1015 NOSIG=

TAF

SHRATCU

ENOL 181100Z 1812/1912 32015KT 9999 -SHRA FEW015TCU BKN030 BECMG 1821/1824 VRB05KT BECMG 1906/1909 13012KT CAVOK=

ENRM (13:50 UTC)

Rørvik flygplats, Ryum

METAR

SHRACB

ENRM 181350Z 29006KT 9999 VCSH SCT020CB FEW030 09/05 Q1013=

TAF

SHRACBTCU

ENRM 181100Z 1812/1818 30010KT 9999 FEW012TCU SCT025 TEMPO 1812/1818 33015G25KT SHRA BKN014CB=

ENBN (13:50 UTC)

Brønnøysund flygplats, Brønnøy

METAR

SHRACB

ENBN 181350Z 31010KT 270V350 9999 VCSH FEW020CB SCT025 09/04 Q1011=

TAF

SHRACBTCU

ENBN RRE 181100Z 1812/1819 30008KT 9999 -SHRA FEW020TCU BKN035 TEMPO 1812/1815 SHRA SCT020CB=

ENRA (13:50 UTC)

Mo i Rana flygplats, Røssvoll

METAR

ENRA 181350Z VRB02KT 9999 FEW008 SCT030 BKN050 06/04 Q1009=

TAF

SHRACB

ENRA RRH 181100Z 1812/1821 30005KT 9999 -SHRA FEW005 BKN025 TEMPO 1812/1815 SCT015CB=

ENBO (13:50 UTC)

Bodö flygplats

METAR

SHRATCU

ENBO 181350Z 33015KT 9999 VCSH FEW015TCU SCT030 BKN200 08/03 Q1009 NOSIG=

TAF

SHRACBTCU

ENBO RRB 181100Z 1812/1912 33012KT 9999 -SHRA FEW015TCU BKN025 TEMPO 1812/1912 FEW014CB=

ENSH (13:50 UTC)

Svolvær flygplats, Helle

METAR

SHRATCU

ENSH 181350Z 35010KT 290V020 9999 VCSH FEW030TCU BKN036 07/02 Q1008 RMK WIND 150FT 35013KT 310V010=

TAF

SHRACBTCU

ENSH RRF 181100Z 1812/1820 VRB05KT 9999 FEW015TCU BKN025 TEMPO 1812/1815 36010KT SHRA SCT020CB=

ENAN (13:50 UTC)

Andøya flygplats

METAR

ENAN 181350Z 01016KT 9999 FEW019 SCT047 06/03 Q1008=

TAF

SHRACB

ENAN RRA 181100Z 1812/1912 03018KT 9999 -SHRA SCT015 BKN030 TEMPO 1812/1906 4000 SHRAGS FEW008 BKN014CB TEMPO 1818/1824 32020G30KT=

ENEV (14:02 UTC)

Harstad-Narvik flygplats

METAR

RA

ENEV 181402Z 34005KT 300V020 9999 -RA FEW016 SCT033 BKN040 05/05 Q1008 RMK WIND 1400FT 33018KT=

TAF

SHRA

ENEV RRE 181100Z 1812/1821 36008KT 9999 FEW010 BKN025 TEMPO 1812/1821 36015G25KT SHRA BKN012=

ENDU (13:50 UTC)

Bardufoss flygplats

METAR

SHRA

ENDU 181350Z 27009KT 9999 -SHRA FEW001 SCT020 BKN030 05/04 Q1006 NOSIG RMK WIND 1100FT 31011KT WIND 2200FT 30011KT=

TAF

SHRAFG

ENDU RRC 181100Z 1812/1912 27008KT 9999 -SHRA FEW005 BKN025 PROB40 TEMPO 1821/1908 0400 FG VV002 TEMPO 1818/1912 SHRA BKN014=

ENTC (13:50 UTC)

Tromsø flygplats

METAR

ENTC 181350Z 36004KT 9999 FEW030 SCT041 05/02 Q1006 NOSIG RMK WIND 2600FT 35021KT=

TAF

SHRA

ENTC RRC 181100Z 1812/1912 03008KT 9999 FEW015 BKN030 TEMPO 1812/1906 SHRA BKN012=

ENAT (13:50 UTC)

Alta flygplats

METAR

ENAT 181350Z 00000KT 9999 SCT029 BKN078 03/02 Q1004 RMK WIND 700FT VRB02KT=

TAF

ENAT RRD 181100Z 1812/1821 VRB05KT 9999 FEW010 BKN020=

ENNA (13:50 UTC)

Lakselv flygplats

METAR

RA

ENNA 181350Z 33014KT 9999 -RA FEW016 BKN022 05/03 Q1003 RMK WIND 1800FT 34013KT=

TAF

RA

ENNA RRA 181100Z 1812/1912 30008KT 9999 FEW004 BKN020 TEMPO 1812/1824 -RADZ BKN008=

ENHF (13:50 UTC)

Hammerfest flygplats

METAR

DZ

ENHF 181350Z VRB03KT 9999 DZ FEW013 SCT032 BKN055 06/03 Q1003 RMK WIND 1254FT 33007KT=

TAF

RA

ENHF RRG 181100Z 1812/1821 VRB05KT 9999 SCT020 BKN030 TEMPO 1812/1815 4000 RADZ BKN014=

ENKR (13:50 UTC)

Kirkenes Airport, Høybuktmoen

METAR

DZ

ENKR 181350Z 07012KT 9999 -DZ SCT009 BKN014 04/02 Q1002 RMK WIND 731FT 07020KT=

TAF

RA

ENKR RRF 181100Z 1812/1821 03009KT 9999 -RA FEW005 BKN015 TEMPO 1812/1815 RADZ BKN008=

ENLK (13:50 UTC)

Leknes Airport

METAR

SHRATCU

ENLK 181350Z 36009KT 9999 VCSH FEW025 SCT040 SCT050TCU 06/02 Q1010=

TAF

Ingen TAF hittades.

ENNO (13:50 UTC)

Notodden Airport, Tuven

METAR

ENNO 181350Z 24003KT CAVOK 08/06 Q1017=

TAF

ENNO 181100Z 1812/1817 VRB05KT CAVOK=

ENST (13:50 UTC)

Sandnessjøen Airport, Stokka

METAR

SHRACB

ENST 181350Z 35007KT 310V020 9999 VCSH FEW020CB SCT030 09/04 Q1010 RMK WIND 300FT 34008KT=

TAF

Ingen TAF hittades.

ENSB (13:50 UTC)

Svalbard Airport, Longyear

METAR

ENSB 181350Z 12009KT 9999 FEW030 BKN060 M01/M07 Q1019 RMK WIND 1400FT 13008KT=

TAF

ENSB RRB 181100Z 1812/1912 12012KT 9999 FEW020 BKN040 TEMPO 1900/1912 VRB05KT=

ENSK (13:50 UTC)

Stokmarknes Airport, Skagen

METAR

SHRA

ENSK 181350Z VRB03KT 9999 VCSH FEW020 SCT030 BKN036 07/03 Q1009=

TAF

Ingen TAF hittades.

ENNM (13:50 UTC)

Namsos Airport, Høknesøra

METAR

SHRATCU

ENNM 181350Z 23009KT 9999 VCSH SCT025TCU SCT037 07/05 Q1013=

TAF

Ingen TAF hittades.